sensor_id;sensor_type;location;lat;lon;timestamp;pressure;altitude;pressure_sealevel;temperature;humidity
75414;BME280;64758;52.122;5.404;2022-12-05T00:00:57;102145.81;;;3.20;98.84
75414;BME280;64758;52.122;5.404;2022-12-05T00:03:25;102140.56;;;3.20;98.58
75414;BME280;64758;52.122;5.404;2022-12-05T00:05:52;102151.78;;;3.22;98.49
75414;BME280;64758;52.122;5.404;2022-12-05T00:08:18;102153.25;;;3.26;98.98
75414;BME280;64758;52.122;5.404;2022-12-05T00:10:45;102152.31;;;3.27;97.75
75414;BME280;64758;52.122;5.404;2022-12-05T00:13:11;102159.25;;;3.28;98.46
75414;BME280;64758;52.122;5.404;2022-12-05T00:15:39;102144.22;;;3.30;98.16
75414;BME280;64758;52.122;5.404;2022-12-05T00:18:06;102152.91;;;3.31;97.79
75414;BME280;64758;52.122;5.404;2022-12-05T00:20:32;102157.22;;;3.32;97.85
75414;BME280;64758;52.122;5.404;2022-12-05T00:22:59;102144.22;;;3.30;97.96
75414;BME280;64758;52.122;5.404;2022-12-05T00:25:26;102144.00;;;3.33;97.98
75414;BME280;64758;52.122;5.404;2022-12-05T00:27:52;102150.72;;;3.37;97.81
75414;BME280;64758;52.122;5.404;2022-12-05T00:30:19;102145.47;;;3.37;97.96
75414;BME280;64758;52.122;5.404;2022-12-05T00:32:45;102149.88;;;3.37;97.61
75414;BME280;64758;52.122;5.404;2022-12-05T00:35:11;102150.59;;;3.39;97.87
75414;BME280;64758;52.122;5.404;2022-12-05T00:37:38;102143.56;;;3.39;97.83
75414;BME280;64758;52.122;5.404;2022-12-05T00:40:05;102147.38;;;3.35;98.58
75414;BME280;64758;52.122;5.404;2022-12-05T00:42:31;102143.66;;;3.38;98.22
75414;BME280;64758;52.122;5.404;2022-12-05T00:44:58;102149.56;;;3.41;98.38
75414;BME280;64758;52.122;5.404;2022-12-05T00:47:24;102147.16;;;3.38;98.39
75414;BME280;64758;52.122;5.404;2022-12-05T00:49:51;102150.72;;;3.37;98.13
75414;BME280;64758;52.122;5.404;2022-12-05T00:52:17;102148.19;;;3.36;98.71
75414;BME280;64758;52.122;5.404;2022-12-05T00:54:44;102151.44;;;3.39;98.56
75414;BME280;64758;52.122;5.404;2022-12-05T00:57:10;102146.28;;;3.38;98.98
75414;BME280;64758;52.122;5.404;2022-12-05T00:59:37;102145.69;;;3.34;98.87
75414;BME280;64758;52.122;5.404;2022-12-05T01:02:03;102144.63;;;3.37;99.53
75414;BME280;64758;52.122;5.404;2022-12-05T01:04:30;102149.88;;;3.37;99.24
75414;BME280;64758;52.122;5.404;2022-12-05T01:06:57;102147.38;;;3.35;99.89
75414;BME280;64758;52.122;5.404;2022-12-05T01:09:24;102149.13;;;3.35;100.00
75414;BME280;64758;52.122;5.404;2022-12-05T01:11:51;102147.44;;;3.34;100.00
75414;BME280;64758;52.122;5.404;2022-12-05T01:14:20;102142.31;;;3.32;100.00
75414;BME280;64758;52.122;5.404;2022-12-05T01:16:49;102145.69;;;3.34;100.00
75414;BME280;64758;52.122;5.404;2022-12-05T01:19:22;102144.81;;;3.34;100.00
75414;BME280;64758;52.122;5.404;2022-12-05T01:21:49;102151.75;;;3.35;100.00
75414;BME280;64758;52.122;5.404;2022-12-05T01:24:17;102161.44;;;3.34;100.00
75414;BME280;64758;52.122;5.404;2022-12-05T01:26:45;102144.94;;;3.32;100.00
75414;BME280;64758;52.122;5.404;2022-12-05T01:29:14;102150.09;;;3.34;100.00
75414;BME280;64758;52.122;5.404;2022-12-05T01:31:41;102142.31;;;3.32;100.00
75414;BME280;64758;52.122;5.404;2022-12-05T01:34:11;102152.84;;;3.32;100.00
75414;BME280;64758;52.122;5.404;2022-12-05T01:36:38;102154.72;;;3.30;100.00
75414;BME280;64758;52.122;5.404;2022-12-05T01:39:06;102158.28;;;3.29;100.00
75414;BME280;64758;52.122;5.404;2022-12-05T01:41:36;102154.72;;;3.30;100.00
75414;BME280;64758;52.122;5.404;2022-12-05T01:46:49;102159.97;;;3.30;100.00
75414;BME280;64758;52.122;5.404;2022-12-05T01:49:39;102147.66;;;3.31;100.00
75414;BME280;64758;52.122;5.404;2022-12-05T01:52:12;102160.06;;;3.29;100.00
75414;BME280;64758;52.122;5.404;2022-12-05T01:54:40;102159.13;;;3.30;100.00
75414;BME280;64758;52.122;5.404;2022-12-05T01:57:09;102161.44;;;3.34;100.00
75414;BME280;64758;52.122;5.404;2022-12-05T01:59:39;102161.44;;;3.34;100.00
75414;BME280;64758;52.122;5.404;2022-12-05T02:02:07;102169.19;;;3.36;100.00
75414;BME280;64758;52.122;5.404;2022-12-05T02:04:37;102170.03;;;3.36;100.00
75414;BME280;64758;52.122;5.404;2022-12-05T02:07:06;102158.91;;;3.33;100.00
75414;BME280;64758;52.122;5.404;2022-12-05T02:09:32;102158.81;;;3.34;100.00
75414;BME280;64758;52.122;5.404;2022-12-05T02:12:01;102157.88;;;3.35;100.00
75414;BME280;64758;52.122;5.404;2022-12-05T02:14:48;102150.72;;;3.37;100.00
75414;BME280;64758;52.122;5.404;2022-12-05T02:31:47;102145.56;;;3.36;100.00
75414;BME280;64758;52.122;5.404;2022-12-05T02:37:05;102149.66;;;3.40;100.00
75414;BME280;64758;52.122;5.404;2022-12-05T02:42:23;102149.44;;;3.43;100.00
75414;BME280;64758;52.122;5.404;2022-12-05T02:45:02;102144.91;;;3.45;100.00
75414;BME280;64758;52.122;5.404;2022-12-05T02:47:36;102145.84;;;3.44;100.00
75414;BME280;64758;52.122;5.404;2022-12-05T02:50:06;102145.75;;;3.45;100.00
75414;BME280;64758;52.122;5.404;2022-12-05T02:52:34;102151.75;;;3.47;100.00
75414;BME280;64758;52.122;5.404;2022-12-05T02:55:02;102148.19;;;3.48;100.00
75414;BME280;64758;52.122;5.404;2022-12-05T02:57:30;102147.09;;;3.51;100.00
75414;BME280;64758;52.122;5.404;2022-12-05T02:59:57;102134.09;;;3.49;100.00
75414;BME280;64758;52.122;5.404;2022-12-05T03:02:26;102134.81;;;3.51;100.00
75414;BME280;64758;52.122;5.404;2022-12-05T03:05:43;102133.88;;;3.52;100.00
75414;BME280;64758;52.122;5.404;2022-12-05T03:07:46;102140.59;;;3.56;100.00
75414;BME280;64758;52.122;5.404;2022-12-05T03:10:16;102140.38;;;3.59;100.00
75414;BME280;64758;52.122;5.404;2022-12-05T03:12:50;102148.13;;;3.61;100.00
75414;BME280;64758;52.122;5.404;2022-12-05T03:15:25;102145.63;;;3.59;100.00
75414;BME280;64758;52.122;5.404;2022-12-05T03:18:01;102146.56;;;3.58;100.00
75414;BME280;64758;52.122;5.404;2022-12-05T03:20:34;102151.47;;;3.63;100.00
75414;BME280;64758;52.122;5.404;2022-12-05T03:23:11;102148.03;;;3.62;100.00
75414;BME280;64758;52.122;5.404;2022-12-05T03:25:53;102146.88;;;3.66;100.00
75414;BME280;64758;52.122;5.404;2022-12-05T03:28:29;102154.63;;;3.68;100.00
75414;BME280;64758;52.122;5.404;2022-12-05T03:31:01;102156.28;;;3.69;100.00
75414;BME280;64758;52.122;5.404;2022-12-05T03:33:35;102159.78;;;3.69;100.00
75414;BME280;64758;52.122;5.404;2022-12-05T03:36:14;102157.75;;;3.72;100.00
75414;BME280;64758;52.122;5.404;2022-12-05T03:38:50;102162.19;;;3.72;100.00
75414;BME280;64758;52.122;5.404;2022-12-05T03:41:33;102155.13;;;3.72;100.00
75414;BME280;64758;52.122;5.404;2022-12-05T03:44:11;102156.81;;;3.73;100.00
75414;BME280;64758;52.122;5.404;2022-12-05T03:46:44;102156.94;;;3.72;100.00
75414;BME280;64758;52.122;5.404;2022-12-05T03:49:32;102162.19;;;3.72;100.00
75414;BME280;64758;52.122;5.404;2022-12-05T03:52:08;102173.41;;;3.74;100.00
75414;BME280;64758;52.122;5.404;2022-12-05T03:54:43;102168.38;;;3.71;100.00
75414;BME280;64758;52.122;5.404;2022-12-05T03:57:16;102164.69;;;3.73;100.00
75414;BME280;64758;52.122;5.404;2022-12-05T03:59:48;102168.16;;;3.74;100.00
75414;BME280;64758;52.122;5.404;2022-12-05T04:02:25;102172.34;;;3.76;100.00
75414;BME280;64758;52.122;5.404;2022-12-05T04:05:00;102169.84;;;3.75;100.00
75414;BME280;64758;52.122;5.404;2022-12-05T04:07:32;102177.72;;;3.75;100.00
75414;BME280;64758;52.122;5.404;2022-12-05T04:10:05;102185.41;;;3.78;100.00
75414;BME280;64758;52.122;5.404;2022-12-05T04:12:35;102180.34;;;3.75;100.00
75414;BME280;64758;52.122;5.404;2022-12-05T04:15:07;102176.66;;;3.77;100.00
75414;BME280;64758;52.122;5.404;2022-12-05T04:17:42;102175.63;;;3.80;100.00
75414;BME280;64758;52.122;5.404;2022-12-05T04:20:38;102178.47;;;3.77;100.00
75414;BME280;64758;52.122;5.404;2022-12-05T04:23:41;102177.59;;;3.76;100.00
75414;BME280;64758;52.122;5.404;2022-12-05T04:26:22;102178.47;;;3.77;100.00
75414;BME280;64758;52.122;5.404;2022-12-05T04:28:58;102170.44;;;3.78;100.00
75414;BME280;64758;52.122;5.404;2022-12-05T04:31:39;102165.31;;;3.77;100.00
75414;BME280;64758;52.122;5.404;2022-12-05T04:34:07;102170.56;;;3.77;100.00
75414;BME280;64758;52.122;5.404;2022-12-05T04:37:06;102168.91;;;3.76;100.00
75414;BME280;64758;52.122;5.404;2022-12-05T04:39:44;102151.69;;;3.72;100.00
75414;BME280;64758;52.122;5.404;2022-12-05T04:42:16;102169.13;;;3.73;100.00
75414;BME280;64758;52.122;5.404;2022-12-05T04:44:50;102166.50;;;3.73;100.00
75414;BME280;64758;52.122;5.404;2022-12-05T04:47:20;102169.94;;;3.73;100.00
75414;BME280;64758;52.122;5.404;2022-12-05T04:49:49;102166.50;;;3.73;100.00
75414;BME280;64758;52.122;5.404;2022-12-05T04:52:20;102166.38;;;3.74;100.00
75414;BME280;64758;52.122;5.404;2022-12-05T04:55:08;102171.53;;;3.76;100.00
75414;BME280;64758;52.122;5.404;2022-12-05T04:58:19;102176.66;;;3.77;100.00
75414;BME280;64758;52.122;5.404;2022-12-05T05:01:01;102171.31;;;3.79;100.00
75414;BME280;64758;52.122;5.404;2022-12-05T05:06:11;102158.16;;;3.79;100.00
75414;BME280;64758;52.122;5.404;2022-12-05T05:08:52;102166.88;;;3.79;100.00
75414;BME280;64758;52.122;5.404;2022-12-05T05:11:22;102159.72;;;3.81;100.00
75414;BME280;64758;52.122;5.404;2022-12-05T05:13:50;102168.19;;;3.85;100.00
75414;BME280;64758;52.122;5.404;2022-12-05T05:16:19;102164.84;;;3.83;100.00
75414;BME280;64758;52.122;5.404;2022-12-05T05:18:47;102169.88;;;3.86;100.00
75414;BME280;64758;52.122;5.404;2022-12-05T05:21:26;102168.94;;;3.87;100.00
75414;BME280;64758;52.122;5.404;2022-12-05T05:23:53;102170.84;;;3.85;100.00
75414;BME280;64758;52.122;5.404;2022-12-05T05:26:21;102166.09;;;3.90;100.00
75414;BME280;64758;52.122;5.404;2022-12-05T05:28:48;102174.69;;;3.92;100.00
75414;BME280;64758;52.122;5.404;2022-12-05T05:31:15;102174.69;;;3.92;100.00
75414;BME280;64758;52.122;5.404;2022-12-05T05:33:42;102176.50;;;3.91;100.00
75414;BME280;64758;52.122;5.404;2022-12-05T05:36:10;102172.91;;;3.92;100.00
75414;BME280;64758;52.122;5.404;2022-12-05T05:38:40;102171.75;;;3.96;100.00
75414;BME280;64758;52.122;5.404;2022-12-05T05:43:42;102177.72;;;3.98;100.00
75414;BME280;64758;52.122;5.404;2022-12-05T05:46:09;102162.91;;;3.97;100.00
75414;BME280;64758;52.122;5.404;2022-12-05T05:48:36;102164.47;;;4.00;100.00
75414;BME280;64758;52.122;5.404;2022-12-05T05:51:05;102167.72;;;4.03;100.00
75414;BME280;64758;52.122;5.404;2022-12-05T05:53:32;102158.03;;;4.04;100.00
75414;BME280;64758;52.122;5.404;2022-12-05T05:56:03;102159.72;;;4.05;100.00
75414;BME280;64758;52.122;5.404;2022-12-05T05:58:30;102163.06;;;4.07;100.00
75414;BME280;64758;52.122;5.404;2022-12-05T06:01:09;102166.31;;;4.10;100.00
75414;BME280;64758;52.122;5.404;2022-12-05T06:03:36;102167.28;;;4.09;100.00
75414;BME280;64758;52.122;5.404;2022-12-05T06:06:07;102158.31;;;4.12;100.00
75414;BME280;64758;52.122;5.404;2022-12-05T06:08:35;102164.28;;;4.14;100.00
75414;BME280;64758;52.122;5.404;2022-12-05T06:11:07;102166.69;;;4.17;100.00
75414;BME280;64758;52.122;5.404;2022-12-05T06:13:35;102160.25;;;4.21;100.00
75414;BME280;64758;52.122;5.404;2022-12-05T06:16:04;102172.47;;;4.22;100.00
75414;BME280;64758;52.122;5.404;2022-12-05T06:18:31;102162.78;;;4.22;100.00
75414;BME280;64758;52.122;5.404;2022-12-05T06:20:58;102165.44;;;4.22;100.00
75414;BME280;64758;52.122;5.404;2022-12-05T06:23:25;102160.91;;;4.24;100.00
75414;BME280;64758;52.122;5.404;2022-12-05T06:25:53;102159.09;;;4.25;100.00
75414;BME280;64758;52.122;5.404;2022-12-05T06:28:22;102172.72;;;4.30;100.00
75414;BME280;64758;52.122;5.404;2022-12-05T06:30:49;102168.19;;;4.32;100.00
75414;BME280;64758;52.122;5.404;2022-12-05T06:33:16;102174.19;;;4.34;100.00
75414;BME280;64758;52.122;5.404;2022-12-05T06:35:43;102173.22;;;4.35;100.00
75414;BME280;64758;52.122;5.404;2022-12-05T06:38:09;102172.41;;;4.34;100.00
75414;BME280;64758;52.122;5.404;2022-12-05T06:40:41;102177.31;;;4.39;100.00
75414;BME280;64758;52.122;5.404;2022-12-05T06:43:08;102175.53;;;4.39;100.00
75414;BME280;64758;52.122;5.404;2022-12-05T06:45:36;102172.78;;;4.41;100.00
75414;BME280;64758;52.122;5.404;2022-12-05T06:48:03;102177.09;;;4.42;100.00
75414;BME280;64758;52.122;5.404;2022-12-05T06:50:30;102189.19;;;4.44;100.00
75414;BME280;64758;52.122;5.404;2022-12-05T06:52:56;102190.00;;;4.45;100.00
75414;BME280;64758;52.122;5.404;2022-12-05T06:55:23;102188.09;;;4.47;100.00
75414;BME280;64758;52.122;5.404;2022-12-05T06:57:49;102190.63;;;4.48;100.00
75414;BME280;64758;52.122;5.404;2022-12-05T07:00:16;102191.47;;;4.49;100.00
75414;BME280;64758;52.122;5.404;2022-12-05T07:03:01;102185.25;;;4.50;100.00
75414;BME280;64758;52.122;5.404;2022-12-05T07:05:27;102194.00;;;4.50;100.00
75414;BME280;64758;52.122;5.404;2022-12-05T07:07:54;102197.44;;;4.51;100.00
75414;BME280;64758;52.122;5.404;2022-12-05T07:10:20;102195.44;;;4.54;100.00
75414;BME280;64758;52.122;5.404;2022-12-05T07:12:47;102185.97;;;4.52;100.00
75414;BME280;64758;52.122;5.404;2022-12-05T07:15:13;102187.53;;;4.54;100.00
75414;BME280;64758;52.122;5.404;2022-12-05T07:17:41;102188.38;;;4.55;100.00
75414;BME280;64758;52.122;5.404;2022-12-05T07:20:08;102193.31;;;4.59;100.00
75414;BME280;64758;52.122;5.404;2022-12-05T07:22:36;102200.25;;;4.60;100.00
75414;BME280;64758;52.122;5.404;2022-12-05T07:25:03;102199.38;;;4.60;100.00
75414;BME280;64758;52.122;5.404;2022-12-05T07:27:29;102198.56;;;4.59;100.00
75414;BME280;64758;52.122;5.404;2022-12-05T07:29:56;102207.19;;;4.61;100.00
75414;BME280;64758;52.122;5.404;2022-12-05T07:32:23;102213.16;;;4.63;100.00
75414;BME280;64758;52.122;5.404;2022-12-05T07:34:49;102204.41;;;4.63;100.00
75414;BME280;64758;52.122;5.404;2022-12-05T07:37:20;102212.22;;;4.64;100.00
75414;BME280;64758;52.122;5.404;2022-12-05T07:39:47;102207.78;;;4.65;100.00
75414;BME280;64758;52.122;5.404;2022-12-05T07:42:13;102213.75;;;4.67;100.00
75414;BME280;64758;52.122;5.404;2022-12-05T07:44:40;102215.44;;;4.68;100.00
75414;BME280;64758;52.122;5.404;2022-12-05T07:47:06;102221.44;;;4.70;100.00
75414;BME280;64758;52.122;5.404;2022-12-05T07:49:33;102217.84;;;4.71;100.00
75414;BME280;64758;52.122;5.404;2022-12-05T07:51:59;102223.97;;;4.71;100.00
75414;BME280;64758;52.122;5.404;2022-12-05T07:54:26;102222.38;;;4.69;100.00
75414;BME280;64758;52.122;5.404;2022-12-05T07:56:52;102230.28;;;4.69;100.00
75414;BME280;64758;52.122;5.404;2022-12-05T07:59:19;102230.03;;;4.72;100.00
75414;BME280;64758;52.122;5.404;2022-12-05T08:01:45;102230.03;;;4.72;100.00
75414;BME280;64758;52.122;5.404;2022-12-05T08:04:12;102234.13;;;4.76;100.00
75414;BME280;64758;52.122;5.404;2022-12-05T08:06:41;102237.47;;;4.78;100.00
75414;BME280;64758;52.122;5.404;2022-12-05T08:09:08;102232.34;;;4.76;100.00
75414;BME280;64758;52.122;5.404;2022-12-05T08:11:34;102233.91;;;4.79;100.00
75414;BME280;64758;52.122;5.404;2022-12-05T08:14:03;102233.16;;;4.77;100.00
75414;BME280;64758;52.122;5.404;2022-12-05T08:16:30;102235.56;;;4.80;100.00
75414;BME280;64758;52.122;5.404;2022-12-05T08:19:00;102234.53;;;4.82;100.00
75414;BME280;64758;52.122;5.404;2022-12-05T08:21:27;102242.28;;;4.84;100.00
75414;BME280;64758;52.122;5.404;2022-12-05T08:23:55;102242.06;;;4.87;100.00
75414;BME280;64758;52.122;5.404;2022-12-05T08:26:27;102242.19;;;4.85;100.00
75414;BME280;64758;52.122;5.404;2022-12-05T08:28:56;102245.41;;;4.89;100.00
75414;BME280;64758;52.122;5.404;2022-12-05T08:31:24;102255.84;;;4.90;100.00
75414;BME280;64758;52.122;5.404;2022-12-05T08:33:54;102250.44;;;4.92;100.00
75414;BME280;64758;52.122;5.404;2022-12-05T08:36:26;102252.47;;;4.88;100.00
75414;BME280;64758;52.122;5.404;2022-12-05T08:39:01;102244.47;;;4.90;100.00
75414;BME280;64758;52.122;5.404;2022-12-05T08:41:28;102253.94;;;4.92;100.00
75414;BME280;64758;52.122;5.404;2022-12-05T08:44:00;102249.50;;;4.93;100.00
75414;BME280;64758;52.122;5.404;2022-12-05T08:46:32;102260.50;;;4.97;100.00
75414;BME280;64758;52.122;5.404;2022-12-05T08:48:59;102257.06;;;4.97;100.00
75414;BME280;64758;52.122;5.404;2022-12-05T08:51:25;102261.25;;;4.99;100.00
75414;BME280;64758;52.122;5.404;2022-12-05T08:53:52;102259.31;;;5.01;100.00
75414;BME280;64758;52.122;5.404;2022-12-05T08:56:19;102260.28;;;5.00;100.00
75414;BME280;64758;52.122;5.404;2022-12-05T08:58:52;102262.69;;;5.03;100.00
75414;BME280;64758;52.122;5.404;2022-12-05T09:01:20;102269.63;;;5.04;100.00
75414;BME280;64758;52.122;5.404;2022-12-05T09:03:47;102273.13;;;5.05;100.00
75414;BME280;64758;52.122;5.404;2022-12-05T09:08:42;102267.63;;;5.08;100.00
75414;BME280;64758;52.122;5.404;2022-12-05T09:11:14;102266.91;;;5.06;100.00
75414;BME280;64758;52.122;5.404;2022-12-05T09:13:42;102273.84;;;5.07;100.00
75414;BME280;64758;52.122;5.404;2022-12-05T09:16:11;102272.75;;;5.09;100.00
75414;BME280;64758;52.122;5.404;2022-12-05T09:18:38;102272.75;;;5.09;100.00
75414;BME280;64758;52.122;5.404;2022-12-05T09:21:31;102268.06;;;5.13;100.00
75414;BME280;64758;52.122;5.404;2022-12-05T09:23:58;102276.84;;;5.13;100.00
75414;BME280;64758;52.122;5.404;2022-12-05T09:26:27;102274.78;;;5.17;100.00
75414;BME280;64758;52.122;5.404;2022-12-05T09:28:53;102273.13;;;5.16;100.00
75414;BME280;64758;52.122;5.404;2022-12-05T09:31:22;102284.38;;;5.18;100.00
75414;BME280;64758;52.122;5.404;2022-12-05T09:33:50;102279.00;;;5.19;100.00
75414;BME280;64758;52.122;5.404;2022-12-05T09:36:19;102279.81;;;5.20;100.00
75414;BME280;64758;52.122;5.404;2022-12-05T09:38:46;102282.59;;;5.18;100.00
75414;BME280;64758;52.122;5.404;2022-12-05T09:50:34;102288.13;;;5.26;100.00
75414;BME280;64758;52.122;5.404;2022-12-05T09:58:37;102286.44;;;5.25;100.00
75414;BME280;64758;52.122;5.404;2022-12-05T10:04:18;102291.25;;;5.31;100.00
75414;BME280;64758;52.122;5.404;2022-12-05T10:09:47;102297.22;;;5.33;100.00
75414;BME280;64758;52.122;5.404;2022-12-05T10:12:37;102294.47;;;5.35;100.00
75414;BME280;64758;52.122;5.404;2022-12-05T10:15:22;102294.34;;;5.36;100.00
75414;BME280;64758;52.122;5.404;2022-12-05T10:17:57;102290.78;;;5.37;100.00
75414;BME280;64758;52.122;5.404;2022-12-05T10:20:32;102293.41;;;5.37;100.00
75414;BME280;64758;52.122;5.404;2022-12-05T10:23:07;102288.72;;;5.41;100.00
75414;BME280;64758;52.122;5.404;2022-12-05T10:26:01;102291.34;;;5.41;100.00
75414;BME280;64758;52.122;5.404;2022-12-05T10:28:50;102288.72;;;5.41;100.00
75414;BME280;64758;52.122;5.404;2022-12-05T10:31:21;102284.06;;;5.44;100.00
75414;BME280;64758;52.122;5.404;2022-12-05T10:33:56;102282.41;;;5.43;100.00
75414;BME280;64758;52.122;5.404;2022-12-05T10:36:24;102285.28;;;5.40;100.00
75414;BME280;64758;52.122;5.404;2022-12-05T10:38:53;102287.44;;;5.46;100.00
75414;BME280;64758;52.122;5.404;2022-12-05T10:41:22;102288.25;;;5.47;100.00
75414;BME280;64758;52.122;5.404;2022-12-05T10:43:49;102290.78;;;5.48;100.00
75414;BME280;64758;52.122;5.404;2022-12-05T10:46:16;102283.59;;;5.50;100.00
75414;BME280;64758;52.122;5.404;2022-12-05T10:48:43;102283.59;;;5.50;100.00
75414;BME280;64758;52.122;5.404;2022-12-05T10:51:14;102274.84;;;5.50;100.00
75414;BME280;64758;52.122;5.404;2022-12-05T10:53:47;102274.97;;;5.48;100.00
75414;BME280;64758;52.122;5.404;2022-12-05T10:59:02;102272.94;;;5.52;100.00
75414;BME280;64758;52.122;5.404;2022-12-05T11:01:29;102274.59;;;5.53;100.00
75414;BME280;64758;52.122;5.404;2022-12-05T11:03:59;102275.47;;;5.53;100.00
75414;BME280;64758;52.122;5.404;2022-12-05T11:06:28;102276.28;;;5.54;100.00
75414;BME280;64758;52.122;5.404;2022-12-05T11:08:58;102273.78;;;5.52;100.00
75414;BME280;64758;52.122;5.404;2022-12-05T11:11:32;102269.47;;;5.51;100.00
75414;BME280;64758;52.122;5.404;2022-12-05T11:14:00;102267.06;;;5.48;100.00
75414;BME280;64758;52.122;5.404;2022-12-05T11:16:30;102270.75;;;5.46;100.00
75414;BME280;64758;52.122;5.404;2022-12-05T11:19:23;102278.81;;;5.44;100.00
75414;BME280;64758;52.122;5.404;2022-12-05T11:21:51;102277.00;;;5.45;100.00
75414;BME280;64758;52.122;5.404;2022-12-05T11:26:51;102271.63;;;5.46;100.00
75414;BME280;64758;52.122;5.404;2022-12-05T11:29:33;102270.75;;;5.46;100.00
75414;BME280;64758;52.122;5.404;2022-12-05T11:32:03;102269.72;;;5.48;100.00
75414;BME280;64758;52.122;5.404;2022-12-05T11:34:48;102273.88;;;5.51;100.00
75414;BME280;64758;52.122;5.404;2022-12-05T11:37:22;102265.41;;;5.47;100.00
75414;BME280;64758;52.122;5.404;2022-12-05T11:39:50;102269.00;;;5.46;100.00
75414;BME280;64758;52.122;5.404;2022-12-05T11:42:51;102274.03;;;5.49;100.00
75414;BME280;64758;52.122;5.404;2022-12-05T11:45:49;102274.75;;;5.51;100.00
75414;BME280;64758;52.122;5.404;2022-12-05T11:56:36;102268.38;;;5.54;100.00
75414;BME280;64758;52.122;5.404;2022-12-05T12:18:14;102273.31;;;5.58;100.00
75414;BME280;64758;52.122;5.404;2022-12-05T12:42:19;102252.72;;;5.63;100.00
75414;BME280;64758;52.122;5.404;2022-12-05T12:47:37;102250.41;;;5.59;100.00
75414;BME280;64758;52.122;5.404;2022-12-05T12:50:34;102259.03;;;5.61;100.00
75414;BME280;64758;52.122;5.404;2022-12-05T12:55:51;102252.34;;;5.57;100.00
75414;BME280;64758;52.122;5.404;2022-12-05T13:01:06;102245.38;;;5.56;100.00
75414;BME280;64758;52.122;5.404;2022-12-05T13:03:41;102255.19;;;5.54;100.00
75414;BME280;64758;52.122;5.404;2022-12-05T13:06:25;102256.16;;;5.53;100.00
75414;BME280;64758;52.122;5.404;2022-12-05T13:09:02;102247.31;;;5.54;100.00
75414;BME280;64758;52.122;5.404;2022-12-05T13:11:36;102249.84;;;5.55;100.00
75414;BME280;64758;52.122;5.404;2022-12-05T13:14:10;102247.91;;;5.57;100.00
75414;BME280;64758;52.122;5.404;2022-12-05T13:16:44;102243.69;;;5.55;100.00
75414;BME280;64758;52.122;5.404;2022-12-05T13:22:03;102246.56;;;5.52;100.00
75414;BME280;64758;52.122;5.404;2022-12-05T13:24:31;102248.25;;;5.53;100.00
75414;BME280;64758;52.122;5.404;2022-12-05T13:27:00;102257.84;;;5.54;100.00
75414;BME280;64758;52.122;5.404;2022-12-05T13:29:40;102246.81;;;5.49;100.00
75414;BME280;64758;52.122;5.404;2022-12-05T13:34:50;102249.69;;;5.46;100.00
75414;BME280;64758;52.122;5.404;2022-12-05T13:37:27;102245.50;;;5.43;100.00
75414;BME280;64758;52.122;5.404;2022-12-05T13:43:08;102239.03;;;5.36;100.00
75414;BME280;64758;52.122;5.404;2022-12-05T13:45:36;102244.53;;;5.33;100.00
75414;BME280;64758;52.122;5.404;2022-12-05T13:48:06;102246.22;;;5.34;100.00
75414;BME280;64758;52.122;5.404;2022-12-05T13:50:56;102254.94;;;5.35;100.00
75414;BME280;64758;52.122;5.404;2022-12-05T13:56:24;102242.88;;;5.32;100.00
75414;BME280;64758;52.122;5.404;2022-12-05T13:58:57;102256.63;;;5.36;100.00
75414;BME280;64758;52.122;5.404;2022-12-05T14:03:58;102255.09;;;5.33;100.00
75414;BME280;64758;52.122;5.404;2022-12-05T14:09:28;102255.91;;;5.34;100.00
75414;BME280;64758;52.122;5.404;2022-12-05T14:17:31;102256.28;;;5.29;100.00
75414;BME280;64758;52.122;5.404;2022-12-05T14:20:18;102252.78;;;5.29;100.00
75414;BME280;64758;52.122;5.404;2022-12-05T14:25:31;102253.63;;;5.29;100.00
75414;BME280;64758;52.122;5.404;2022-12-05T14:28:25;102253.50;;;5.31;100.00
75414;BME280;64758;52.122;5.404;2022-12-05T14:31:22;102255.31;;;5.30;100.00
75414;BME280;64758;52.122;5.404;2022-12-05T14:34:15;102260.59;;;5.30;100.00
75414;BME280;64758;52.122;5.404;2022-12-05T14:39:47;102260.34;;;5.33;100.00
75414;BME280;64758;52.122;5.404;2022-12-05T14:44:48;102255.09;;;5.33;100.00
75414;BME280;64758;52.122;5.404;2022-12-05T14:47:21;102249.81;;;5.33;100.00
75414;BME280;64758;52.122;5.404;2022-12-05T14:50:20;102270.66;;;5.36;100.00
75414;BME280;64758;52.122;5.404;2022-12-05T14:53:29;102269.69;;;5.37;100.00
75414;BME280;64758;52.122;5.404;2022-12-05T14:58:33;102267.06;;;5.37;100.00
75414;BME280;64758;52.122;5.404;2022-12-05T15:01:05;102270.66;;;5.36;100.00
75414;BME280;64758;52.122;5.404;2022-12-05T15:03:41;102272.34;;;5.37;100.00
75414;BME280;64758;52.122;5.404;2022-12-05T15:06:14;102270.66;;;5.36;100.00
75414;BME280;64758;52.122;5.404;2022-12-05T15:08:46;102279.13;;;5.40;100.00
75414;BME280;64758;52.122;5.404;2022-12-05T15:11:16;102280.94;;;5.39;100.00
75414;BME280;64758;52.122;5.404;2022-12-05T15:16:36;102280.09;;;5.39;100.00
75414;BME280;64758;52.122;5.404;2022-12-05T15:19:06;102283.59;;;5.39;100.00
75414;BME280;64758;52.122;5.404;2022-12-05T15:22:07;102283.94;;;5.35;100.00
75414;BME280;64758;52.122;5.404;2022-12-05T15:24:37;102286.69;;;5.33;100.00
75414;BME280;64758;52.122;5.404;2022-12-05T15:27:05;102294.59;;;5.33;100.00
75414;BME280;64758;52.122;5.404;2022-12-05T15:29:38;102288.47;;;5.33;100.00
75414;BME280;64758;52.122;5.404;2022-12-05T15:32:14;102299.13;;;5.31;100.00
75414;BME280;64758;52.122;5.404;2022-12-05T15:35:02;102294.47;;;5.35;100.00
75414;BME280;64758;52.122;5.404;2022-12-05T15:42:34;102296.28;;;5.34;100.00
75414;BME280;64758;52.122;5.404;2022-12-05T15:47:37;102284.28;;;5.30;100.00
75414;BME280;64758;52.122;5.404;2022-12-05T15:50:04;102300.09;;;5.30;100.00
75414;BME280;64758;52.122;5.404;2022-12-05T15:52:35;102289.44;;;5.32;100.00